Terminal Aerodrome Forecast
Issued by NWS Binghamton, NY

Home | Current Version | Previous Version | Text Only | Print | Product List | Glossary On
Versions: 1 2 3 4 5 6 7 8 9 10 11 12 13 14 15 16 17 18 19 20 21
000
FTUS41 KBGM 191900 AAB
TAFBGM
TAF AMD
KBGM 191918Z 1919/2018 33011G20KT P6SM FEW300
     FM200100 VRB06KT P6SM FEW300
     FM201500 17009KT P6SM SCT300=

USA.gov is the U.S. government's official web portal to all federal, state and local government web resources and services.